createdAt,value
2019-04-10T00:00:00.900Z,1003.36
2019-04-10T00:01:01.453Z,1003.35
2019-04-10T00:02:01.481Z,1003.35
2019-04-10T00:03:01.999Z,1003.32
2019-04-10T00:04:00.892Z,1003.33
2019-04-10T00:05:01.229Z,1003.28
2019-04-10T00:06:00.906Z,1003.26
2019-04-10T00:07:08.397Z,1003.33
2019-04-10T00:08:01.874Z,1003.24
2019-04-10T00:09:00.949Z,1003.31
2019-04-10T00:10:00.894Z,1003.29
2019-04-10T00:11:00.839Z,1003.27
2019-04-10T00:12:01.018Z,1003.26
2019-04-10T00:13:00.841Z,1003.30
2019-04-10T00:14:00.897Z,1003.27
2019-04-10T00:15:00.954Z,1003.29
2019-04-10T00:16:00.842Z,1003.30
2019-04-10T00:17:00.902Z,1003.27
2019-04-10T00:18:01.866Z,1003.28
2019-04-10T00:19:00.831Z,1003.26
2019-04-10T00:20:00.849Z,1003.32
2019-04-10T00:21:00.928Z,1003.30
2019-04-10T00:22:02.650Z,1003.32
2019-04-10T00:23:00.904Z,1003.35
2019-04-10T00:24:01.775Z,1003.33
2019-04-10T00:25:00.908Z,1003.31
2019-04-10T00:26:01.431Z,1003.33
2019-04-10T00:27:01.821Z,1003.33
2019-04-10T00:28:01.201Z,1003.32
2019-04-10T00:29:00.834Z,1003.32
2019-04-10T00:30:00.903Z,1003.32
2019-04-10T00:31:01.929Z,1003.30
2019-04-10T00:32:02.168Z,1003.32
2019-04-10T00:33:00.917Z,1003.33
2019-04-10T00:34:01.092Z,1003.32
2019-04-10T00:35:00.919Z,1003.35
2019-04-10T00:36:01.599Z,1003.28
2019-04-10T00:37:01.753Z,1003.31
2019-04-10T00:38:01.722Z,1003.31
2019-04-10T00:39:00.858Z,1003.33
2019-04-10T00:40:01.253Z,1003.30
2019-04-10T00:41:00.917Z,1003.33
2019-04-10T00:42:00.956Z,1003.31
2019-04-10T00:43:00.920Z,1003.32
2019-04-10T00:44:01.452Z,1003.39
2019-04-10T00:45:02.018Z,1003.36
2019-04-10T00:46:01.947Z,1003.33
2019-04-10T00:47:00.819Z,1003.35
2019-04-10T00:48:01.678Z,1003.33
2019-04-10T00:49:00.926Z,1003.36
2019-04-10T00:50:00.873Z,1003.36
2019-04-10T00:51:01.281Z,1003.33
2019-04-10T00:52:00.872Z,1003.27
2019-04-10T00:53:00.984Z,1003.35
2019-04-10T00:54:01.468Z,1003.34
2019-04-10T00:55:01.515Z,1003.32
2019-04-10T00:56:01.887Z,1003.36
2019-04-10T00:57:01.082Z,1003.37
2019-04-10T00:58:01.594Z,1003.37
2019-04-10T00:59:01.749Z,1003.33
2019-04-10T01:00:01.014Z,1003.38
2019-04-10T01:01:00.933Z,1003.36
2019-04-10T01:02:00.862Z,1003.39
2019-04-10T01:03:00.939Z,1003.36
2019-04-10T01:04:00.924Z,1003.33
2019-04-10T01:05:00.862Z,1003.36
2019-04-10T01:06:01.765Z,1003.33
2019-04-10T01:07:00.877Z,1003.31
2019-04-10T01:08:00.876Z,1003.32
2019-04-10T01:09:01.390Z,1003.31
2019-04-10T01:10:02.053Z,1003.32
2019-04-10T01:11:01.116Z,1003.33
2019-04-10T01:12:00.940Z,1003.29
2019-04-10T01:13:00.874Z,1003.29
2019-04-10T01:14:01.213Z,1003.31
2019-04-10T01:15:00.893Z,1003.33
2019-04-10T01:16:00.932Z,1003.24
2019-04-10T01:17:02.055Z,1003.27
2019-04-10T01:18:00.944Z,1003.26
2019-04-10T01:19:01.783Z,1003.27
2019-04-10T01:20:00.878Z,1003.28
2019-04-10T01:21:01.952Z,1003.23
2019-04-10T01:22:01.074Z,1003.27
2019-04-10T01:23:00.956Z,1003.29
2019-04-10T01:24:01.449Z,1003.24
2019-04-10T01:25:02.029Z,1003.25
2019-04-10T01:26:01.090Z,1003.27
2019-04-10T01:27:01.298Z,1003.29
2019-04-10T01:28:00.951Z,1003.27
2019-04-10T01:29:00.950Z,1003.26
2019-04-10T01:30:02.222Z,1003.28
2019-04-10T01:31:00.969Z,1003.29
2019-04-10T01:32:01.602Z,1003.30
2019-04-10T01:33:01.015Z,1003.28
2019-04-10T01:34:01.099Z,1003.32
2019-04-10T01:35:00.902Z,1003.27
2019-04-10T01:36:00.962Z,1003.29
2019-04-10T01:37:00.889Z,1003.26
2019-04-10T01:38:03.950Z,1003.30
2019-04-10T01:39:02.035Z,1003.26
2019-04-10T01:40:00.960Z,1003.29
2019-04-10T01:41:01.559Z,1003.27
2019-04-10T01:42:00.963Z,1003.25
2019-04-10T01:43:08.322Z,1003.26
2019-04-10T01:44:01.457Z,1003.25
2019-04-10T01:45:00.898Z,1003.27
2019-04-10T01:46:02.003Z,1003.29
2019-04-10T01:47:00.907Z,1003.25
2019-04-10T01:48:01.655Z,1003.28
2019-04-10T01:49:01.654Z,1003.24
2019-04-10T01:50:00.913Z,1003.26
2019-04-10T01:51:01.191Z,1003.25
2019-04-10T01:52:00.963Z,1003.26
2019-04-10T01:53:01.642Z,1003.30
2019-04-10T01:54:00.909Z,1003.29
2019-04-10T01:55:03.245Z,1003.24
2019-04-10T01:56:00.927Z,1003.26
2019-04-10T01:57:00.912Z,1003.27
2019-04-10T01:58:01.010Z,1003.21
2019-04-10T01:59:01.361Z,1003.19
2019-04-10T02:00:00.898Z,1003.22
2019-04-10T02:01:01.844Z,1003.27
2019-04-10T02:02:01.078Z,1003.23
2019-04-10T02:03:01.410Z,1003.27
2019-04-10T02:04:00.977Z,1003.29
2019-04-10T02:05:00.899Z,1003.32
2019-04-10T02:06:01.069Z,1003.34
2019-04-10T02:07:01.840Z,1003.36
2019-04-10T02:08:07.925Z,1003.35
2019-04-10T02:09:00.970Z,1003.39
2019-04-10T02:10:01.613Z,1003.35
2019-04-10T02:11:00.977Z,1003.35
2019-04-10T02:12:01.977Z,1003.37
2019-04-10T02:13:01.273Z,1003.37
2019-04-10T02:14:00.899Z,1003.38
2019-04-10T02:15:00.913Z,1003.40
2019-04-10T02:16:00.974Z,1003.40
2019-04-10T02:17:00.978Z,1003.39
2019-04-10T02:18:01.271Z,1003.37
2019-04-10T02:19:01.686Z,1003.38
2019-04-10T02:20:00.991Z,1003.35
2019-04-10T02:21:01.198Z,1003.38
2019-04-10T02:22:00.939Z,1003.36
2019-04-10T02:23:01.712Z,1003.37
2019-04-10T02:24:00.990Z,1003.36
2019-04-10T02:25:01.016Z,1003.34
2019-04-10T02:26:01.162Z,1003.32
2019-04-10T02:27:01.006Z,1003.29
2019-04-10T02:28:00.924Z,1003.30
2019-04-10T02:29:01.740Z,1003.31
2019-04-10T02:30:01.236Z,1003.32
2019-04-10T02:31:02.716Z,1003.31
2019-04-10T02:32:02.093Z,1003.33
2019-04-10T02:33:02.262Z,1003.31
2019-04-10T02:34:01.544Z,1003.34
2019-04-10T02:35:01.273Z,1003.32
2019-04-10T02:36:01.466Z,1003.33
2019-04-10T02:37:02.377Z,1003.38
2019-04-10T02:38:22.854Z,1003.35
2019-04-10T02:39:13.748Z,1003.35
2019-04-10T02:40:03.647Z,1003.36
2019-04-10T02:41:01.672Z,1003.40
2019-04-10T02:42:02.663Z,1003.35
2019-04-10T02:43:01.016Z,1003.35
2019-04-10T02:44:02.355Z,1003.33
2019-04-10T02:45:02.294Z,1003.32
2019-04-10T02:46:02.140Z,1003.36
2019-04-10T02:47:02.117Z,1003.33
2019-04-10T02:48:01.726Z,1003.35
2019-04-10T02:49:01.021Z,1003.32
2019-04-10T02:50:03.262Z,1003.39
2019-04-10T02:51:01.915Z,1003.40
2019-04-10T02:52:01.064Z,1003.40
2019-04-10T02:53:01.436Z,1003.39
2019-04-10T02:54:02.378Z,1003.40
2019-04-10T02:55:02.026Z,1003.34
2019-04-10T02:56:01.026Z,1003.40
2019-04-10T02:57:01.157Z,1003.35
2019-04-10T02:58:02.454Z,1003.39
2019-04-10T02:59:02.663Z,1003.38
2019-04-10T03:00:03.743Z,1003.35
2019-04-10T03:01:01.397Z,1003.40
2019-04-10T03:02:02.351Z,1003.43
2019-04-10T03:03:01.426Z,1003.39
2019-04-10T03:04:01.422Z,1003.36
2019-04-10T03:05:01.369Z,1003.40
2019-04-10T03:06:02.503Z,1003.36
2019-04-10T03:07:02.074Z,1003.38
2019-04-10T03:08:01.118Z,1003.33
2019-04-10T03:09:14.452Z,1003.38
2019-04-10T03:10:12.614Z,1003.42
2019-04-10T03:11:04.153Z,1003.39
2019-04-10T03:12:01.212Z,1003.41
2019-04-10T03:13:02.220Z,1003.40
2019-04-10T03:14:01.676Z,1003.41
2019-04-10T03:15:01.228Z,1003.43
2019-04-10T03:16:01.026Z,1003.45
2019-04-10T03:17:01.957Z,1003.45
2019-04-10T03:18:01.022Z,1003.49
2019-04-10T03:19:01.158Z,1003.44
2019-04-10T03:20:01.508Z,1003.40
2019-04-10T03:21:00.974Z,1003.43
2019-04-10T03:22:01.820Z,1003.41
2019-04-10T03:23:01.029Z,1003.42
2019-04-10T03:24:02.058Z,1003.46
2019-04-10T03:25:00.964Z,1003.41
2019-04-10T03:26:01.453Z,1003.49
2019-04-10T03:27:01.749Z,1003.43
2019-04-10T03:28:00.973Z,1003.43
2019-04-10T03:29:00.965Z,1003.47
2019-04-10T03:30:00.971Z,1003.48
2019-04-10T03:31:02.953Z,1003.49
2019-04-10T03:32:02.091Z,1003.44
2019-04-10T03:33:05.855Z,1003.45
2019-04-10T03:34:03.329Z,1003.43
2019-04-10T03:35:00.981Z,1003.45
2019-04-10T03:36:01.043Z,1003.42
2019-04-10T03:37:01.775Z,1003.45
2019-04-10T03:38:01.520Z,1003.44
2019-04-10T03:39:04.844Z,1003.49
2019-04-10T03:40:00.967Z,1003.46
2019-04-10T03:41:02.010Z,1003.45
2019-04-10T03:42:00.983Z,1003.47
2019-04-10T03:43:01.492Z,1003.49
2019-04-10T03:44:00.985Z,1003.50
2019-04-10T03:45:01.183Z,1003.50
2019-04-10T03:46:01.299Z,1003.57
2019-04-10T03:47:01.042Z,1003.54
2019-04-10T03:48:01.825Z,1003.56
2019-04-10T03:49:01.281Z,1003.55
2019-04-10T03:50:01.000Z,1003.55
2019-04-10T03:51:01.059Z,1003.56
2019-04-10T03:52:01.089Z,1003.57
2019-04-10T03:53:02.068Z,1003.54
2019-04-10T03:54:01.064Z,1003.57
2019-04-10T03:55:00.999Z,1003.56
2019-04-10T03:56:01.269Z,1003.55
2019-04-10T03:57:01.071Z,1003.55
2019-04-10T03:58:01.069Z,1003.61
2019-04-10T03:59:02.070Z,1003.57
2019-04-10T04:00:01.563Z,1003.59
2019-04-10T04:01:01.066Z,1003.58
2019-04-10T04:02:01.067Z,1003.57
2019-04-10T04:03:01.089Z,1003.58
2019-04-10T04:04:01.499Z,1003.58
2019-04-10T04:05:01.018Z,1003.62
2019-04-10T04:06:01.642Z,1003.61
2019-04-10T04:07:01.025Z,1003.62
2019-04-10T04:08:01.283Z,1003.58
2019-04-10T04:09:07.329Z,1003.62
2019-04-10T04:10:02.474Z,1003.64
2019-04-10T04:11:01.496Z,1003.66
2019-04-10T04:12:02.198Z,1003.66
2019-04-10T04:13:01.538Z,1003.66
2019-04-10T04:14:01.002Z,1003.63
2019-04-10T04:15:02.218Z,1003.68
2019-04-10T04:16:02.189Z,1003.63
2019-04-10T04:17:01.850Z,1003.68
2019-04-10T04:18:01.030Z,1003.62
2019-04-10T04:19:01.720Z,1003.68
2019-04-10T04:20:01.005Z,1003.63
2019-04-10T04:21:01.549Z,1003.68
2019-04-10T04:22:01.067Z,1003.63
2019-04-10T04:23:01.400Z,1003.62
2019-04-10T04:24:01.423Z,1003.64
2019-04-10T04:25:01.001Z,1003.65
2019-04-10T04:26:01.078Z,1003.66
2019-04-10T04:27:01.008Z,1003.67
2019-04-10T04:28:01.145Z,1003.61
2019-04-10T04:29:02.039Z,1003.62
2019-04-10T04:30:01.006Z,1003.62
2019-04-10T04:31:01.091Z,1003.62
2019-04-10T04:32:01.234Z,1003.64
2019-04-10T04:33:01.087Z,1003.63
2019-04-10T04:34:01.923Z,1003.66
2019-04-10T04:35:01.020Z,1003.64
2019-04-10T04:36:01.998Z,1003.71
2019-04-10T04:37:01.090Z,1003.69
2019-04-10T04:38:01.050Z,1003.74
2019-04-10T04:39:12.718Z,1003.73
2019-04-10T04:40:01.099Z,1003.77
2019-04-10T04:41:01.035Z,1003.79
2019-04-10T04:42:01.024Z,1003.78
2019-04-10T04:43:01.023Z,1003.80
2019-04-10T04:44:01.794Z,1003.79
2019-04-10T04:45:01.100Z,1003.81
2019-04-10T04:46:01.233Z,1003.85
2019-04-10T04:47:01.236Z,1003.83
2019-04-10T04:48:01.848Z,1003.81
2019-04-10T04:49:02.136Z,1003.81
2019-04-10T04:50:01.469Z,1003.81
2019-04-10T04:51:01.319Z,1003.84
2019-04-10T04:52:01.028Z,1003.83
2019-04-10T04:53:01.090Z,1003.82
2019-04-10T04:54:01.093Z,1003.89
2019-04-10T04:55:01.927Z,1003.89
2019-04-10T04:56:01.745Z,1003.93
2019-04-10T04:57:01.029Z,1003.86
2019-04-10T04:58:01.977Z,1003.92
2019-04-10T04:59:01.490Z,1003.96
2019-04-10T05:00:01.218Z,1003.96
2019-04-10T05:01:02.033Z,1003.94
2019-04-10T05:02:01.327Z,1003.96
2019-04-10T05:03:01.898Z,1003.98
2019-04-10T05:04:01.021Z,1003.97
2019-04-10T05:05:01.118Z,1004.01
2019-04-10T05:06:01.018Z,1004.02
2019-04-10T05:07:01.030Z,1003.99
2019-04-10T05:08:02.949Z,1004.08
2019-04-10T05:09:01.104Z,1004.05
2019-04-10T05:10:02.088Z,1004.05
2019-04-10T05:11:02.159Z,1004.06
2019-04-10T05:12:01.108Z,1004.08
2019-04-10T05:13:01.995Z,1004.08
2019-04-10T05:14:01.110Z,1004.12
2019-04-10T05:15:01.125Z,1004.10
2019-04-10T05:16:01.047Z,1004.09
2019-04-10T05:17:01.067Z,1004.16
2019-04-10T05:18:02.011Z,1004.12
2019-04-10T05:19:01.743Z,1004.11
2019-04-10T05:20:01.049Z,1004.12
2019-04-10T05:21:01.069Z,1004.15
2019-04-10T05:22:01.671Z,1004.14
2019-04-10T05:23:02.054Z,1004.12
2019-04-10T05:24:01.108Z,1004.16
2019-04-10T05:25:01.078Z,1004.16
2019-04-10T05:26:01.037Z,1004.13
2019-04-10T05:27:01.251Z,1004.19
2019-04-10T05:28:01.584Z,1004.20
2019-04-10T05:29:01.026Z,1004.21
2019-04-10T05:30:02.358Z,1004.23
2019-04-10T05:31:01.151Z,1004.22
2019-04-10T05:32:01.123Z,1004.24
2019-04-10T05:33:01.974Z,1004.28
2019-04-10T05:34:01.059Z,1004.29
2019-04-10T05:35:03.983Z,1004.30
2019-04-10T05:36:01.362Z,1004.32
2019-04-10T05:37:01.078Z,1004.34
2019-04-10T05:38:01.092Z,1004.39
2019-04-10T05:39:02.117Z,1004.40
2019-04-10T05:40:01.585Z,1004.35
2019-04-10T05:41:01.428Z,1004.38
2019-04-10T05:42:02.431Z,1004.37
2019-04-10T05:43:01.628Z,1004.37
2019-04-10T05:44:01.128Z,1004.42
2019-04-10T05:45:01.060Z,1004.41
2019-04-10T05:46:01.050Z,1004.39
2019-04-10T05:47:01.246Z,1004.41
2019-04-10T05:48:01.229Z,1004.43
2019-04-10T05:49:01.165Z,1004.40
2019-04-10T05:50:02.027Z,1004.44
2019-04-10T05:51:04.276Z,1004.44
2019-04-10T05:52:02.022Z,1004.40
2019-04-10T05:53:02.079Z,1004.44
2019-04-10T05:54:02.202Z,1004.43
2019-04-10T05:55:02.199Z,1004.43
2019-04-10T05:56:01.470Z,1004.47
2019-04-10T05:57:01.240Z,1004.44
2019-04-10T05:58:01.639Z,1004.44
2019-04-10T05:59:01.079Z,1004.42
2019-04-10T06:00:01.081Z,1004.45
2019-04-10T06:01:01.132Z,1004.43
2019-04-10T06:02:01.149Z,1004.50
2019-04-10T06:03:01.137Z,1004.44
2019-04-10T06:04:01.063Z,1004.51
2019-04-10T06:05:02.232Z,1004.50
2019-04-10T06:06:01.243Z,1004.46
2019-04-10T06:07:01.085Z,1004.47
2019-04-10T06:08:01.368Z,1004.45
2019-04-10T06:09:01.085Z,1004.47
2019-04-10T06:10:05.015Z,1004.48
2019-04-10T06:11:01.276Z,1004.46
2019-04-10T06:12:03.379Z,1004.45
2019-04-10T06:13:01.018Z,1004.43
2019-04-10T06:14:01.197Z,1004.41
2019-04-10T06:15:02.340Z,1004.38
2019-04-10T06:16:01.563Z,1004.47
2019-04-10T06:17:04.005Z,1004.40
2019-04-10T06:18:01.070Z,1004.41
2019-04-10T06:19:01.853Z,1004.39
2019-04-10T06:20:01.074Z,1004.41
2019-04-10T06:21:01.089Z,1004.44
2019-04-10T06:22:01.173Z,1004.47
2019-04-10T06:23:01.312Z,1004.44
2019-04-10T06:24:01.107Z,1004.46
2019-04-10T06:25:01.166Z,1004.47
2019-04-10T06:26:03.462Z,1004.50
2019-04-10T06:27:01.889Z,1004.49
2019-04-10T06:28:01.186Z,1004.50
2019-04-10T06:29:02.299Z,1004.53
2019-04-10T06:30:01.902Z,1004.50
2019-04-10T06:31:01.146Z,1004.52
2019-04-10T06:32:01.205Z,1004.50
2019-04-10T06:33:02.079Z,1004.55
2019-04-10T06:34:01.123Z,1004.55
2019-04-10T06:35:01.923Z,1004.54
2019-04-10T06:36:01.127Z,1004.52
2019-04-10T06:37:01.898Z,1004.52
2019-04-10T06:38:02.343Z,1004.54
2019-04-10T06:39:01.161Z,1004.53
2019-04-10T06:40:10.670Z,1004.51
2019-04-10T06:41:02.171Z,1004.57
2019-04-10T06:42:02.380Z,1004.54
2019-04-10T06:43:01.124Z,1004.47
2019-04-10T06:44:01.483Z,1004.52
2019-04-10T06:45:01.140Z,1004.51
2019-04-10T06:46:01.194Z,1004.52
2019-04-10T06:47:02.165Z,1004.53
2019-04-10T06:48:01.168Z,1004.56
2019-04-10T06:49:01.169Z,1004.55
2019-04-10T06:50:02.468Z,1004.56
2019-04-10T06:51:02.088Z,1004.58
2019-04-10T06:52:01.884Z,1004.61
2019-04-10T06:53:01.168Z,1004.62
2019-04-10T06:54:06.978Z,1004.63
2019-04-10T06:55:01.186Z,1004.62
2019-04-10T06:56:01.121Z,1004.66
2019-04-10T06:57:01.191Z,1004.62
2019-04-10T06:58:01.135Z,1004.61
2019-04-10T06:59:01.443Z,1004.61
2019-04-10T07:00:02.363Z,1004.63
2019-04-10T07:01:01.782Z,1004.64
2019-04-10T07:02:13.940Z,1004.64
2019-04-10T07:03:01.121Z,1004.68
2019-04-10T07:04:06.451Z,1004.68
2019-04-10T07:05:05.702Z,1004.68
2019-04-10T07:06:09.772Z,1004.70
2019-04-10T07:07:08.897Z,1004.73
2019-04-10T07:08:10.861Z,1004.67
2019-04-10T07:09:01.289Z,1004.68
2019-04-10T07:10:02.283Z,1004.67
2019-04-10T07:11:06.040Z,1004.72
2019-04-10T07:12:03.043Z,1004.74
2019-04-10T07:13:04.339Z,1004.72
2019-04-10T07:14:01.581Z,1004.76
2019-04-10T07:15:02.204Z,1004.71
2019-04-10T07:16:02.183Z,1004.69
2019-04-10T07:17:05.297Z,1004.72
2019-04-10T07:18:01.071Z,1004.67
2019-04-10T07:19:04.246Z,1004.70
2019-04-10T07:20:01.942Z,1004.72
2019-04-10T07:21:02.002Z,1004.76
2019-04-10T07:22:02.048Z,1004.80
2019-04-10T07:23:01.102Z,1004.77
2019-04-10T07:24:05.386Z,1004.73
2019-04-10T07:25:01.208Z,1004.74
2019-04-10T07:26:01.858Z,1004.74
2019-04-10T07:27:03.366Z,1004.79
2019-04-10T07:28:01.858Z,1004.79
2019-04-10T07:29:01.212Z,1004.79
2019-04-10T07:30:01.588Z,1004.82
2019-04-10T07:31:05.284Z,1004.82
2019-04-10T07:32:01.211Z,1004.84
2019-04-10T07:33:01.433Z,1004.82
2019-04-10T07:34:01.456Z,1004.82
2019-04-10T07:35:02.871Z,1004.82
2019-04-10T07:36:04.326Z,1004.87
2019-04-10T07:37:02.267Z,1004.86
2019-04-10T07:38:01.432Z,1004.95
2019-04-10T07:39:01.425Z,1004.88
2019-04-10T07:40:04.225Z,1004.87
2019-04-10T07:41:01.177Z,1004.85
2019-04-10T07:42:02.078Z,1004.88
2019-04-10T07:43:02.125Z,1004.90
2019-04-10T07:44:01.725Z,1004.88
2019-04-10T07:45:01.151Z,1004.86
2019-04-10T07:46:01.216Z,1004.89
2019-04-10T07:47:01.132Z,1004.90
2019-04-10T07:48:02.429Z,1004.88
2019-04-10T07:49:01.152Z,1004.84
2019-04-10T07:50:02.136Z,1004.89
2019-04-10T07:51:01.140Z,1004.87
2019-04-10T07:52:02.495Z,1004.87
2019-04-10T07:53:01.960Z,1004.90
2019-04-10T07:54:01.918Z,1004.84
2019-04-10T07:55:01.217Z,1004.87
2019-04-10T07:56:06.334Z,1004.88
2019-04-10T07:57:02.035Z,1004.87
2019-04-10T07:58:01.146Z,1004.86
2019-04-10T07:59:01.214Z,1004.86
2019-04-10T08:00:01.228Z,1004.86
2019-04-10T08:01:01.227Z,1004.83
2019-04-10T08:02:02.388Z,1004.78
2019-04-10T08:03:01.147Z,1004.83
2019-04-10T08:04:01.899Z,1004.84
2019-04-10T08:05:02.391Z,1004.85
2019-04-10T08:06:02.316Z,1004.82
2019-04-10T08:07:01.227Z,1004.88
2019-04-10T08:08:01.150Z,1004.85
2019-04-10T08:09:01.327Z,1004.86
2019-04-10T08:10:01.451Z,1004.86
2019-04-10T08:11:01.582Z,1004.82
2019-04-10T08:12:01.156Z,1004.82
2019-04-10T08:13:02.275Z,1004.86
2019-04-10T08:14:01.288Z,1004.81
2019-04-10T08:15:01.162Z,1004.79
2019-04-10T08:16:01.196Z,1004.78
2019-04-10T08:17:01.131Z,1004.82
2019-04-10T08:18:02.425Z,1004.80
2019-04-10T08:19:01.907Z,1004.80
2019-04-10T08:20:01.628Z,1004.78
2019-04-10T08:21:01.139Z,1004.85
2019-04-10T08:22:01.265Z,1004.86
2019-04-10T08:23:01.571Z,1004.80
2019-04-10T08:24:01.484Z,1004.82
2019-04-10T08:25:02.289Z,1004.89
2019-04-10T08:26:01.141Z,1004.84
2019-04-10T08:27:01.276Z,1004.84
2019-04-10T08:28:01.189Z,1004.79
2019-04-10T08:29:01.656Z,1004.85
2019-04-10T08:30:01.282Z,1004.82
2019-04-10T08:31:01.182Z,1004.82
2019-04-10T08:32:01.387Z,1004.82
2019-04-10T08:33:02.785Z,1004.83
2019-04-10T08:34:01.270Z,1004.80
2019-04-10T08:35:01.375Z,1004.78
2019-04-10T08:36:01.247Z,1004.76
2019-04-10T08:37:01.729Z,1004.83
2019-04-10T08:38:01.419Z,1004.85
2019-04-10T08:39:01.247Z,1004.81
2019-04-10T08:40:01.155Z,1004.79
2019-04-10T08:41:01.252Z,1004.81
2019-04-10T08:42:02.077Z,1004.83
2019-04-10T08:43:02.081Z,1004.82
2019-04-10T08:44:02.160Z,1004.79
2019-04-10T08:45:01.180Z,1004.84
2019-04-10T08:46:02.006Z,1004.87
2019-04-10T08:47:02.314Z,1004.91
2019-04-10T08:48:01.487Z,1004.80
2019-04-10T08:49:01.264Z,1004.79
2019-04-10T08:50:01.494Z,1004.82
2019-04-10T08:51:01.199Z,1004.85
2019-04-10T08:52:01.330Z,1004.84
2019-04-10T08:53:02.093Z,1004.84
2019-04-10T08:54:01.282Z,1004.80
2019-04-10T08:55:01.900Z,1004.84
2019-04-10T08:56:02.275Z,1004.86
2019-04-10T08:57:01.201Z,1004.84
2019-04-10T08:58:01.274Z,1004.85
2019-04-10T08:59:01.356Z,1004.84
2019-04-10T09:00:02.542Z,1004.85
2019-04-10T09:01:01.263Z,1004.87
2019-04-10T09:02:01.965Z,1004.86
2019-04-10T09:03:02.355Z,1004.86
2019-04-10T09:04:01.563Z,1004.84
2019-04-10T09:05:01.603Z,1004.92
2019-04-10T09:06:01.268Z,1004.89
2019-04-10T09:07:03.657Z,1004.90
2019-04-10T09:08:02.353Z,1004.85
2019-04-10T09:09:01.442Z,1004.91
2019-04-10T09:10:01.842Z,1004.88
2019-04-10T09:11:01.199Z,1004.88
2019-04-10T09:12:01.853Z,1004.94
2019-04-10T09:13:01.168Z,1004.88
2019-04-10T09:14:01.218Z,1004.91
2019-04-10T09:15:01.605Z,1004.83
2019-04-10T09:16:02.412Z,1004.88
2019-04-10T09:17:01.228Z,1004.85
2019-04-10T09:18:01.988Z,1004.87
2019-04-10T09:19:01.430Z,1004.84
2019-04-10T09:20:02.550Z,1004.83
2019-04-10T09:21:01.260Z,1004.83
2019-04-10T09:22:01.301Z,1004.88
2019-04-10T09:23:26.520Z,1004.82
2019-04-10T09:24:01.292Z,1004.77
2019-04-10T09:25:01.312Z,1004.81
2019-04-10T09:26:01.830Z,1004.89
2019-04-10T09:27:01.226Z,1004.83
2019-04-10T09:28:02.238Z,1004.81
2019-04-10T09:29:01.225Z,1004.83
2019-04-10T09:30:01.225Z,1004.83
2019-04-10T09:31:01.764Z,1004.81
2019-04-10T09:32:02.172Z,1004.81
2019-04-10T09:33:05.564Z,1004.78
2019-04-10T09:34:01.273Z,1004.75
2019-04-10T09:35:02.482Z,1004.75
2019-04-10T09:36:01.232Z,1004.77
2019-04-10T09:37:01.870Z,1004.76
2019-04-10T09:38:02.121Z,1004.77
2019-04-10T09:39:01.305Z,1004.77
2019-04-10T09:40:01.310Z,1004.75
2019-04-10T09:41:01.512Z,1004.76
2019-04-10T09:42:01.429Z,1004.72
2019-04-10T09:43:01.226Z,1004.73
2019-04-10T09:44:02.359Z,1004.72
2019-04-10T09:45:02.586Z,1004.76
2019-04-10T09:46:02.231Z,1004.73
2019-04-10T09:47:02.080Z,1004.78
2019-04-10T09:48:01.238Z,1004.79
2019-04-10T09:49:01.299Z,1004.75
2019-04-10T09:50:02.309Z,1004.79
2019-04-10T09:51:01.382Z,1004.80
2019-04-10T09:52:01.301Z,1004.80
2019-04-10T09:53:02.096Z,1004.77
2019-04-10T09:54:01.519Z,1004.82
2019-04-10T09:55:01.243Z,1004.78
2019-04-10T09:56:01.249Z,1004.77
2019-04-10T09:57:01.315Z,1004.80
2019-04-10T09:58:02.124Z,1004.75
2019-04-10T09:59:01.234Z,1004.78
2019-04-10T10:00:01.309Z,1004.75
2019-04-10T10:01:01.656Z,1004.78
2019-04-10T10:02:01.306Z,1004.76
2019-04-10T10:03:01.553Z,1004.76
2019-04-10T10:04:01.343Z,1004.80
2019-04-10T10:05:02.237Z,1004.77
2019-04-10T10:06:01.785Z,1004.69
2019-04-10T10:07:01.956Z,1004.66
2019-04-10T10:08:02.236Z,1004.74
2019-04-10T10:09:01.244Z,1004.74
2019-04-10T10:10:01.532Z,1004.75
2019-04-10T10:11:01.811Z,1004.77
2019-04-10T10:12:01.254Z,1004.74
2019-04-10T10:13:01.315Z,1004.76
2019-04-10T10:14:01.916Z,1004.75
2019-04-10T10:15:02.500Z,1004.76
2019-04-10T10:16:01.253Z,1004.78
2019-04-10T10:17:01.316Z,1004.76
2019-04-10T10:18:01.354Z,1004.75
2019-04-10T10:19:01.567Z,1004.76
2019-04-10T10:20:01.800Z,1004.77
2019-04-10T10:21:01.926Z,1004.78
2019-04-10T10:22:03.555Z,1004.76
2019-04-10T10:23:01.417Z,1004.81
2019-04-10T10:24:02.358Z,1004.76
2019-04-10T10:25:01.288Z,1004.75
2019-04-10T10:26:01.728Z,1004.76
2019-04-10T10:27:01.908Z,1004.78
2019-04-10T10:28:01.295Z,1004.85
2019-04-10T10:29:01.270Z,1004.63
2019-04-10T10:30:02.195Z,1004.81
2019-04-10T10:31:01.928Z,1004.81
2019-04-10T10:32:02.472Z,1004.79
2019-04-10T10:33:01.504Z,1004.81
2019-04-10T10:34:01.918Z,1004.80
2019-04-10T10:35:01.306Z,1004.79
2019-04-10T10:36:01.301Z,1004.84
2019-04-10T10:37:03.527Z,1004.86
2019-04-10T10:38:01.288Z,1004.91
2019-04-10T10:39:07.078Z,1004.85
2019-04-10T10:40:01.363Z,1004.83
2019-04-10T10:41:01.273Z,1004.82
2019-04-10T10:42:01.269Z,1004.81
2019-04-10T10:43:02.281Z,1004.80
2019-04-10T10:44:01.250Z,1004.77
2019-04-10T10:45:01.276Z,1004.85
2019-04-10T10:46:01.261Z,1004.89
2019-04-10T10:47:02.064Z,1004.87
2019-04-10T10:48:01.362Z,1004.86
2019-04-10T10:49:02.288Z,1004.92
2019-04-10T10:50:01.278Z,1004.90
2019-04-10T10:52:01.482Z,1004.89
2019-04-10T10:53:01.307Z,1004.92
2019-04-10T10:54:02.640Z,1004.91
2019-04-10T10:55:01.233Z,1004.93
2019-04-10T10:56:02.247Z,1004.93
2019-04-10T10:57:01.244Z,1004.94
2019-04-10T10:58:01.684Z,1004.91
2019-04-10T10:59:01.216Z,1004.96
2019-04-10T11:00:02.143Z,1004.95
2019-04-10T11:01:01.307Z,1004.99
2019-04-10T11:02:02.369Z,1004.90
2019-04-10T11:03:02.258Z,1004.95
2019-04-10T11:04:02.518Z,1004.89
2019-04-10T11:06:02.424Z,1004.99
2019-04-10T11:07:02.559Z,1004.93
2019-04-10T11:08:01.315Z,1004.95
2019-04-10T11:09:01.979Z,1004.92
2019-04-10T11:10:01.507Z,1004.93
2019-04-10T11:11:01.375Z,1004.88
2019-04-10T11:12:01.736Z,1004.89
2019-04-10T11:13:02.312Z,1004.91
2019-04-10T11:14:01.329Z,1004.95
2019-04-10T11:15:02.261Z,1004.86
2019-04-10T11:16:04.262Z,1004.92
2019-04-10T11:17:01.481Z,1004.84
2019-04-10T11:18:02.029Z,1004.85
2019-04-10T11:19:02.602Z,1004.82
2019-04-10T11:20:02.301Z,1004.83
2019-04-10T11:21:05.853Z,1004.83
2019-04-10T11:22:01.312Z,1004.84
2019-04-10T11:23:01.741Z,1004.85
2019-04-10T11:24:02.904Z,1004.80
2019-04-10T11:25:01.573Z,1004.80
2019-04-10T11:26:02.179Z,1004.81
2019-04-10T11:27:02.756Z,1004.78
2019-04-10T11:28:01.313Z,1004.82
2019-04-10T11:29:01.601Z,1004.82
2019-04-10T11:30:03.046Z,1004.81
2019-04-10T11:31:01.811Z,1004.80
2019-04-10T11:32:01.830Z,1004.77
2019-04-10T11:33:02.532Z,1004.77
2019-04-10T11:34:02.787Z,1004.78
2019-04-10T11:35:03.278Z,1004.77
2019-04-10T11:36:01.527Z,1004.77
2019-04-10T11:37:16.787Z,1004.76
2019-04-10T11:38:03.382Z,1004.79
2019-04-10T11:39:12.915Z,1004.83
2019-04-10T11:40:02.129Z,1004.86
2019-04-10T11:41:02.793Z,1004.82
2019-04-10T11:42:01.902Z,1004.82
2019-04-10T11:43:04.716Z,1004.84
2019-04-10T11:44:02.731Z,1004.87
2019-04-10T11:45:01.739Z,1004.83
2019-04-10T11:46:02.677Z,1004.81
2019-04-10T11:47:02.949Z,1004.79
2019-04-10T11:48:02.343Z,1004.79
2019-04-10T11:49:02.553Z,1004.78
2019-04-10T11:50:03.965Z,1004.80
2019-04-10T11:51:02.948Z,1004.85
2019-04-10T11:52:03.038Z,1004.82
2019-04-10T11:53:02.182Z,1004.86
2019-04-10T11:54:03.957Z,1004.83
2019-04-10T11:55:10.256Z,1004.88
2019-04-10T11:56:05.261Z,1004.80
2019-04-10T11:57:04.171Z,1004.81
2019-04-10T11:58:01.386Z,1004.87
2019-04-10T11:59:02.258Z,1004.87
2019-04-10T12:00:04.215Z,1004.82
2019-04-10T12:01:04.064Z,1004.86
2019-04-10T12:03:01.465Z,1004.90
2019-04-10T12:04:02.691Z,1004.90
2019-04-10T12:05:08.662Z,1004.85
2019-04-10T12:06:04.330Z,1004.85
2019-04-10T12:07:02.140Z,1004.91
2019-04-10T12:08:28.071Z,1004.92